sensor_id;sensor_type;location;lat;lon;timestamp;pressure;altitude;pressure_sealevel;temperature;humidity
41712;BME280;27399;51.516;13.670;2023-06-10T00:00:39;100363.34;;;22.04;69.68
41712;BME280;27399;51.516;13.670;2023-06-10T00:03:07;100358.44;;;21.95;70.41
41712;BME280;27399;51.516;13.670;2023-06-10T00:05:33;100346.63;;;21.96;69.98
41712;BME280;27399;51.516;13.670;2023-06-10T00:08:00;100351.09;;;21.97;69.78
41712;BME280;27399;51.516;13.670;2023-06-10T00:10:35;100348.00;;;22.03;69.42
41712;BME280;27399;51.516;13.670;2023-06-10T00:13:05;100354.41;;;22.02;69.36
41712;BME280;27399;51.516;13.670;2023-06-10T00:15:34;100350.38;;;22.09;69.05
41712;BME280;27399;51.516;13.670;2023-06-10T00:18:00;100357.03;;;22.04;69.30
41712;BME280;27399;51.516;13.670;2023-06-10T00:20:27;100347.41;;;21.98;69.66
41712;BME280;27399;51.516;13.670;2023-06-10T00:22:53;100348.63;;;21.92;69.48
41712;BME280;27399;51.516;13.670;2023-06-10T00:25:19;100359.41;;;21.94;69.59
41712;BME280;27399;51.516;13.670;2023-06-10T00:27:45;100366.69;;;21.93;69.18
41712;BME280;27399;51.516;13.670;2023-06-10T00:30:11;100362.22;;;21.92;69.28
41712;BME280;27399;51.516;13.670;2023-06-10T00:32:37;100365.63;;;21.96;69.32
41712;BME280;27399;51.516;13.670;2023-06-10T00:35:04;100369.03;;;21.83;69.74
41712;BME280;27399;51.516;13.670;2023-06-10T00:37:29;100368.16;;;21.83;69.49
41712;BME280;27399;51.516;13.670;2023-06-10T00:39:55;100374.72;;;21.79;69.92
41712;BME280;27399;51.516;13.670;2023-06-10T00:42:21;100372.44;;;21.71;69.96
41712;BME280;27399;51.516;13.670;2023-06-10T00:44:50;100373.13;;;21.75;70.05
41712;BME280;27399;51.516;13.670;2023-06-10T00:47:16;100383.91;;;21.76;70.11
41712;BME280;27399;51.516;13.670;2023-06-10T00:49:42;100368.75;;;21.72;70.09
41712;BME280;27399;51.516;13.670;2023-06-10T00:52:08;100375.59;;;21.63;70.27
41712;BME280;27399;51.516;13.670;2023-06-10T00:54:39;100372.63;;;21.68;70.32
41712;BME280;27399;51.516;13.670;2023-06-10T00:57:05;100371.06;;;21.46;70.20
41712;BME280;27399;51.516;13.670;2023-06-10T00:59:31;100369.13;;;21.48;70.20
41712;BME280;27399;51.516;13.670;2023-06-10T01:01:57;100370.78;;;21.35;70.51
41712;BME280;27399;51.516;13.670;2023-06-10T01:04:24;100361.78;;;21.50;70.21
41712;BME280;27399;51.516;13.670;2023-06-10T01:12:41;100365.97;;;21.40;70.55
41712;BME280;27399;51.516;13.670;2023-06-10T01:15:15;100365.66;;;21.29;71.19
41712;BME280;27399;51.516;13.670;2023-06-10T01:20:24;100373.03;;;21.27;71.08
41712;BME280;27399;51.516;13.670;2023-06-10T01:22:55;100370.47;;;21.24;71.48
41712;BME280;27399;51.516;13.670;2023-06-10T01:25:23;100368.72;;;21.23;71.73
41712;BME280;27399;51.516;13.670;2023-06-10T01:28:03;100373.25;;;21.22;71.84
41712;BME280;27399;51.516;13.670;2023-06-10T01:30:36;100367.22;;;21.17;71.81
41712;BME280;27399;51.516;13.670;2023-06-10T01:33:04;100374.69;;;21.12;72.31
41712;BME280;27399;51.516;13.670;2023-06-10T01:35:31;100374.50;;;21.16;71.96
41712;BME280;27399;51.516;13.670;2023-06-10T01:37:58;100375.59;;;21.12;72.50
41712;BME280;27399;51.516;13.670;2023-06-10T01:40:26;100374.41;;;21.18;72.34
41712;BME280;27399;51.516;13.670;2023-06-10T01:42:52;100365.81;;;21.10;72.53
41712;BME280;27399;51.516;13.670;2023-06-10T01:45:17;100375.84;;;21.08;72.92
41712;BME280;27399;51.516;13.670;2023-06-10T01:47:43;100368.59;;;20.90;72.91
41712;BME280;27399;51.516;13.670;2023-06-10T01:50:09;100368.91;;;21.02;73.33
41712;BME280;27399;51.516;13.670;2023-06-10T01:52:35;100372.59;;;21.01;73.28
41712;BME280;27399;51.516;13.670;2023-06-10T01:55:00;100382.00;;;20.94;73.69
41712;BME280;27399;51.516;13.670;2023-06-10T01:57:26;100391.25;;;20.89;73.80
41712;BME280;27399;51.516;13.670;2023-06-10T01:59:51;100391.09;;;20.93;73.60
41712;BME280;27399;51.516;13.670;2023-06-10T02:02:17;100391.41;;;20.86;73.66
41712;BME280;27399;51.516;13.670;2023-06-10T02:04:43;100390.25;;;20.73;74.12
41712;BME280;27399;51.516;13.670;2023-06-10T02:07:08;100395.84;;;20.70;74.55
41712;BME280;27399;51.516;13.670;2023-06-10T02:09:35;100399.81;;;20.63;74.64
41712;BME280;27399;51.516;13.670;2023-06-10T02:12:03;100404.81;;;20.53;74.72
41712;BME280;27399;51.516;13.670;2023-06-10T02:14:29;100418.28;;;20.54;74.57
41712;BME280;27399;51.516;13.670;2023-06-10T02:16:55;100418.63;;;20.29;75.44
41712;BME280;27399;51.516;13.670;2023-06-10T02:19:22;100415.19;;;20.25;75.85
41712;BME280;27399;51.516;13.670;2023-06-10T02:21:48;100423.31;;;20.25;75.55
41712;BME280;27399;51.516;13.670;2023-06-10T02:24:14;100423.09;;;20.11;76.05
41712;BME280;27399;51.516;13.670;2023-06-10T02:26:40;100424.72;;;20.15;76.28
41712;BME280;27399;51.516;13.670;2023-06-10T02:29:06;100423.50;;;20.03;76.66
41712;BME280;27399;51.516;13.670;2023-06-10T02:31:32;100426.63;;;19.94;76.78
41712;BME280;27399;51.516;13.670;2023-06-10T02:34:01;100437.88;;;20.04;76.78
41712;BME280;27399;51.516;13.670;2023-06-10T02:36:27;100439.50;;;19.89;77.14
41712;BME280;27399;51.516;13.670;2023-06-10T02:38:53;100441.72;;;19.79;77.49
41712;BME280;27399;51.516;13.670;2023-06-10T02:41:19;100450.31;;;19.89;77.16
41712;BME280;27399;51.516;13.670;2023-06-10T02:43:44;100441.16;;;19.91;77.14
41712;BME280;27399;51.516;13.670;2023-06-10T02:46:10;100441.44;;;19.85;77.36
41712;BME280;27399;51.516;13.670;2023-06-10T02:48:45;100447.06;;;19.80;77.32
41712;BME280;27399;51.516;13.670;2023-06-10T02:51:11;100447.75;;;19.65;77.83
41712;BME280;27399;51.516;13.670;2023-06-10T02:53:36;100436.16;;;19.63;77.83
41712;BME280;27399;51.516;13.670;2023-06-10T02:56:02;100450.34;;;19.68;77.83
41712;BME280;27399;51.516;13.670;2023-06-10T02:58:28;100450.09;;;19.54;78.09
41712;BME280;27399;51.516;13.670;2023-06-10T03:00:54;100442.56;;;19.60;78.10
41712;BME280;27399;51.516;13.670;2023-06-10T03:03:20;100446.38;;;19.56;78.01
41712;BME280;27399;51.516;13.670;2023-06-10T03:05:48;100440.81;;;19.59;78.31
41712;BME280;27399;51.516;13.670;2023-06-10T03:08:13;100441.84;;;19.57;78.64
41712;BME280;27399;51.516;13.670;2023-06-10T03:10:39;100441.53;;;19.44;78.73
41712;BME280;27399;51.516;13.670;2023-06-10T03:13:04;100443.13;;;19.48;78.70
41712;BME280;27399;51.516;13.670;2023-06-10T03:15:30;100438.22;;;19.37;78.64
41712;BME280;27399;51.516;13.670;2023-06-10T03:18:01;100435.31;;;19.42;78.50
41712;BME280;27399;51.516;13.670;2023-06-10T03:20:27;100439.16;;;19.36;78.52
41712;BME280;27399;51.516;13.670;2023-06-10T03:22:54;100439.78;;;19.43;78.51
41712;BME280;27399;51.516;13.670;2023-06-10T03:25:19;100439.91;;;19.40;78.62
41712;BME280;27399;51.516;13.670;2023-06-10T03:27:46;100442.72;;;19.36;78.76
41712;BME280;27399;51.516;13.670;2023-06-10T03:30:13;100448.84;;;19.21;79.69
41712;BME280;27399;51.516;13.670;2023-06-10T03:32:38;100446.63;;;19.31;79.38
41712;BME280;27399;51.516;13.670;2023-06-10T03:35:05;100453.22;;;19.24;79.51
41712;BME280;27399;51.516;13.670;2023-06-10T03:37:30;100450.59;;;19.22;79.45
41712;BME280;27399;51.516;13.670;2023-06-10T03:39:56;100461.28;;;19.25;79.49
41712;BME280;27399;51.516;13.670;2023-06-10T03:42:21;100459.53;;;19.24;79.92
41712;BME280;27399;51.516;13.670;2023-06-10T03:44:47;100453.00;;;19.28;79.50
41712;BME280;27399;51.516;13.670;2023-06-10T03:47:13;100459.66;;;19.21;80.00
41712;BME280;27399;51.516;13.670;2023-06-10T03:49:38;100458.59;;;19.25;79.99
41712;BME280;27399;51.516;13.670;2023-06-10T03:52:06;100469.44;;;19.24;80.14
41712;BME280;27399;51.516;13.670;2023-06-10T03:54:31;100465.13;;;19.19;80.01
41712;BME280;27399;51.516;13.670;2023-06-10T03:56:59;100464.84;;;19.26;79.98
41712;BME280;27399;51.516;13.670;2023-06-10T03:59:25;100469.59;;;19.20;80.25
41712;BME280;27399;51.516;13.670;2023-06-10T04:01:51;100467.28;;;19.32;79.96
41712;BME280;27399;51.516;13.670;2023-06-10T04:04:16;100461.00;;;19.31;80.31
41712;BME280;27399;51.516;13.670;2023-06-10T04:06:42;100461.09;;;19.30;80.43
41712;BME280;27399;51.516;13.670;2023-06-10T04:09:09;100476.16;;;19.35;80.20
41712;BME280;27399;51.516;13.670;2023-06-10T04:11:35;100473.56;;;19.32;80.56
41712;BME280;27399;51.516;13.670;2023-06-10T04:14:01;100473.97;;;19.44;80.19
41712;BME280;27399;51.516;13.670;2023-06-10T04:16:27;100475.13;;;19.38;80.59
41712;BME280;27399;51.516;13.670;2023-06-10T04:18:53;100476.81;;;19.41;80.72
41712;BME280;27399;51.516;13.670;2023-06-10T04:21:18;100471.41;;;19.41;80.64
41712;BME280;27399;51.516;13.670;2023-06-10T04:23:44;100470.25;;;19.46;81.05
41712;BME280;27399;51.516;13.670;2023-06-10T04:26:10;100465.06;;;19.42;80.91
41712;BME280;27399;51.516;13.670;2023-06-10T04:28:37;100457.53;;;19.48;80.70
41712;BME280;27399;51.516;13.670;2023-06-10T04:31:03;100462.81;;;19.51;80.67
41712;BME280;27399;51.516;13.670;2023-06-10T04:33:30;100478.06;;;19.52;80.86
41712;BME280;27399;51.516;13.670;2023-06-10T04:35:56;100472.53;;;19.56;80.71
41712;BME280;27399;51.516;13.670;2023-06-10T04:38:21;100477.91;;;19.57;81.19
41712;BME280;27399;51.516;13.670;2023-06-10T04:40:47;100472.50;;;19.57;81.08
41712;BME280;27399;51.516;13.670;2023-06-10T04:43:13;100475.03;;;19.60;81.29
41712;BME280;27399;51.516;13.670;2023-06-10T04:45:39;100479.63;;;19.58;81.64
41712;BME280;27399;51.516;13.670;2023-06-10T04:48:05;100486.38;;;19.69;81.26
41712;BME280;27399;51.516;13.670;2023-06-10T04:50:30;100482.97;;;19.84;80.71
41712;BME280;27399;51.516;13.670;2023-06-10T04:52:58;100482.72;;;19.90;80.63
41712;BME280;27399;51.516;13.670;2023-06-10T04:55:24;100483.53;;;19.92;81.05
41712;BME280;27399;51.516;13.670;2023-06-10T04:57:50;100479.78;;;19.95;81.06
41712;BME280;27399;51.516;13.670;2023-06-10T05:00:16;100484.22;;;19.97;81.21
41712;BME280;27399;51.516;13.670;2023-06-10T05:02:42;100487.41;;;20.06;81.31
41712;BME280;27399;51.516;13.670;2023-06-10T05:05:08;100489.19;;;20.07;81.08
41712;BME280;27399;51.516;13.670;2023-06-10T05:07:33;100480.84;;;20.11;81.14
41712;BME280;27399;51.516;13.670;2023-06-10T05:09:59;100486.63;;;20.23;80.94
41712;BME280;27399;51.516;13.670;2023-06-10T05:12:29;100487.13;;;20.31;80.62
41712;BME280;27399;51.516;13.670;2023-06-10T05:14:54;100495.94;;;20.36;80.56
41712;BME280;27399;51.516;13.670;2023-06-10T05:17:20;100492.09;;;20.40;80.64
41712;BME280;27399;51.516;13.670;2023-06-10T05:19:46;100498.69;;;20.54;79.78
41712;BME280;27399;51.516;13.670;2023-06-10T05:22:12;100475.38;;;20.50;80.28
41712;BME280;27399;51.516;13.670;2023-06-10T05:24:38;100501.38;;;20.73;80.00
41712;BME280;27399;51.516;13.670;2023-06-10T05:27:04;100495.03;;;20.74;79.86
41712;BME280;27399;51.516;13.670;2023-06-10T05:29:32;100495.91;;;20.74;80.01
41712;BME280;27399;51.516;13.670;2023-06-10T05:31:58;100488.81;;;20.89;79.28
41712;BME280;27399;51.516;13.670;2023-06-10T05:34:31;100499.19;;;20.99;78.94
41712;BME280;27399;51.516;13.670;2023-06-10T05:36:56;100501.28;;;20.94;79.78
41712;BME280;27399;51.516;13.670;2023-06-10T05:39:22;100497.13;;;21.04;79.36
41712;BME280;27399;51.516;13.670;2023-06-10T05:41:48;100506.38;;;21.17;78.47
41712;BME280;27399;51.516;13.670;2023-06-10T05:44:14;100510.53;;;21.25;78.56
41712;BME280;27399;51.516;13.670;2023-06-10T05:46:40;100510.22;;;21.31;78.26
41712;BME280;27399;51.516;13.670;2023-06-10T05:49:05;100507.97;;;21.39;79.30
41712;BME280;27399;51.516;13.670;2023-06-10T05:51:31;100499.84;;;21.39;79.59
41712;BME280;27399;51.516;13.670;2023-06-10T05:53:57;100501.03;;;21.51;79.08
41712;BME280;27399;51.516;13.670;2023-06-10T05:56:23;100504.16;;;21.43;77.58
41712;BME280;27399;51.516;13.670;2023-06-10T05:58:51;100503.09;;;21.46;78.48
41712;BME280;27399;51.516;13.670;2023-06-10T06:01:16;100498.94;;;21.56;77.27
41712;BME280;27399;51.516;13.670;2023-06-10T06:03:42;100510.69;;;21.57;76.40
41712;BME280;27399;51.516;13.670;2023-06-10T06:06:08;100505.00;;;21.79;76.48
41712;BME280;27399;51.516;13.670;2023-06-10T06:08:33;100507.56;;;21.82;76.87
41712;BME280;27399;51.516;13.670;2023-06-10T06:10:59;100512.50;;;21.91;75.66
41712;BME280;27399;51.516;13.670;2023-06-10T06:13:24;100508.16;;;22.05;76.16
41712;BME280;27399;51.516;13.670;2023-06-10T06:15:50;100517.69;;;22.12;75.43
41712;BME280;27399;51.516;13.670;2023-06-10T06:18:16;100507.25;;;22.04;75.92
41712;BME280;27399;51.516;13.670;2023-06-10T06:20:41;100516.75;;;22.29;75.91
41712;BME280;27399;51.516;13.670;2023-06-10T06:23:07;100507.97;;;22.41;75.19
41712;BME280;27399;51.516;13.670;2023-06-10T06:25:35;100503.22;;;22.45;74.37
41712;BME280;27399;51.516;13.670;2023-06-10T06:28:02;100504.06;;;22.46;74.47
41712;BME280;27399;51.516;13.670;2023-06-10T06:30:28;100508.47;;;22.64;74.09
41712;BME280;27399;51.516;13.670;2023-06-10T06:32:53;100508.25;;;22.83;73.90
41712;BME280;27399;51.516;13.670;2023-06-10T06:35:19;100507.44;;;22.97;72.97
41712;BME280;27399;51.516;13.670;2023-06-10T06:37:45;100508.78;;;22.90;73.49
41712;BME280;27399;51.516;13.670;2023-06-10T06:40:10;100511.56;;;23.04;73.25
41712;BME280;27399;51.516;13.670;2023-06-10T06:42:36;100506.44;;;23.14;72.73
41712;BME280;27399;51.516;13.670;2023-06-10T06:45:02;100507.13;;;23.18;72.58
41712;BME280;27399;51.516;13.670;2023-06-10T06:47:28;100511.69;;;23.33;73.05
41712;BME280;27399;51.516;13.670;2023-06-10T06:49:53;100518.22;;;23.45;72.04
41712;BME280;27399;51.516;13.670;2023-06-10T06:52:19;100518.34;;;23.58;72.00
41712;BME280;27399;51.516;13.670;2023-06-10T06:54:44;100515.81;;;23.55;71.12
41712;BME280;27399;51.516;13.670;2023-06-10T06:57:10;100519.25;;;23.73;71.34
41712;BME280;27399;51.516;13.670;2023-06-10T06:59:36;100526.56;;;23.87;70.46
41712;BME280;27399;51.516;13.670;2023-06-10T07:02:03;100519.69;;;23.96;70.51
41712;BME280;27399;51.516;13.670;2023-06-10T07:04:29;100520.94;;;24.05;70.93
41712;BME280;27399;51.516;13.670;2023-06-10T07:06:55;100522.88;;;24.17;71.19
41712;BME280;27399;51.516;13.670;2023-06-10T07:09:20;100521.44;;;24.11;69.16
41712;BME280;27399;51.516;13.670;2023-06-10T07:11:46;100525.88;;;24.41;69.64
41712;BME280;27399;51.516;13.670;2023-06-10T07:14:12;100524.44;;;24.21;67.37
41712;BME280;27399;51.516;13.670;2023-06-10T07:16:37;100534.88;;;24.56;68.04
41712;BME280;27399;51.516;13.670;2023-06-10T07:19:03;100533.25;;;24.39;68.19
41712;BME280;27399;51.516;13.670;2023-06-10T07:21:30;100531.66;;;24.79;67.87
41712;BME280;27399;51.516;13.670;2023-06-10T07:23:55;100530.78;;;24.78;67.97
41712;BME280;27399;51.516;13.670;2023-06-10T07:26:24;100536.22;;;25.05;69.65
41712;BME280;27399;51.516;13.670;2023-06-10T07:28:51;100538.25;;;25.16;67.14
41712;BME280;27399;51.516;13.670;2023-06-10T07:31:17;100544.25;;;25.21;65.85
41712;BME280;27399;51.516;13.670;2023-06-10T07:34:19;100539.88;;;25.46;66.48
41712;BME280;27399;51.516;13.670;2023-06-10T07:36:45;100539.22;;;25.56;66.72
41712;BME280;27399;51.516;13.670;2023-06-10T07:39:11;100543.91;;;25.66;66.60
41712;BME280;27399;51.516;13.670;2023-06-10T07:41:36;100535.31;;;25.60;65.13
41712;BME280;27399;51.516;13.670;2023-06-10T07:44:02;100543.06;;;25.53;64.50
41712;BME280;27399;51.516;13.670;2023-06-10T07:46:28;100546.66;;;25.92;65.55
41712;BME280;27399;51.516;13.670;2023-06-10T07:48:54;100542.53;;;25.87;65.54
41712;BME280;27399;51.516;13.670;2023-06-10T07:51:20;100545.50;;;26.09;65.44
41712;BME280;27399;51.516;13.670;2023-06-10T07:53:47;100537.09;;;26.12;64.46
41712;BME280;27399;51.516;13.670;2023-06-10T07:56:13;100528.56;;;26.17;64.86
41712;BME280;27399;51.516;13.670;2023-06-10T07:58:38;100546.75;;;26.42;65.35
41712;BME280;27399;51.516;13.670;2023-06-10T08:01:04;100540.31;;;26.43;63.60
41712;BME280;27399;51.516;13.670;2023-06-10T08:03:30;100542.66;;;26.61;63.47
41712;BME280;27399;51.516;13.670;2023-06-10T08:05:55;100543.34;;;26.52;61.58
41712;BME280;27399;51.516;13.670;2023-06-10T08:08:21;100545.28;;;26.63;61.29
41712;BME280;27399;51.516;13.670;2023-06-10T08:10:47;100537.81;;;26.78;61.03
41712;BME280;27399;51.516;13.670;2023-06-10T08:13:14;100536.78;;;26.91;61.77
41712;BME280;27399;51.516;13.670;2023-06-10T08:15:47;100537.38;;;26.84;61.81
41712;BME280;27399;51.516;13.670;2023-06-10T08:18:13;100540.81;;;26.99;61.29
41712;BME280;27399;51.516;13.670;2023-06-10T08:20:38;100547.53;;;27.06;59.43
41712;BME280;27399;51.516;13.670;2023-06-10T08:23:04;100545.75;;;27.18;59.48
41712;BME280;27399;51.516;13.670;2023-06-10T08:25:30;100543.75;;;27.20;59.40
41712;BME280;27399;51.516;13.670;2023-06-10T08:27:55;100541.53;;;27.25;59.20
41712;BME280;27399;51.516;13.670;2023-06-10T08:30:22;100538.56;;;27.28;58.33
41712;BME280;27399;51.516;13.670;2023-06-10T08:32:48;100543.06;;;27.29;58.39
41712;BME280;27399;51.516;13.670;2023-06-10T08:35:14;100547.25;;;27.58;59.46
41712;BME280;27399;51.516;13.670;2023-06-10T08:37:39;100549.56;;;27.75;59.17
41712;BME280;27399;51.516;13.670;2023-06-10T08:40:05;100551.06;;;27.79;58.32
41712;BME280;27399;51.516;13.670;2023-06-10T08:42:48;100551.72;;;27.83;57.60
41712;BME280;27399;51.516;13.670;2023-06-10T08:45:18;100557.69;;;27.88;57.09
41712;BME280;27399;51.516;13.670;2023-06-10T08:47:49;100557.28;;;27.81;56.27
41712;BME280;27399;51.516;13.670;2023-06-10T08:50:19;100548.63;;;28.10;56.76
41712;BME280;27399;51.516;13.670;2023-06-10T08:52:48;100540.72;;;27.94;55.50
41712;BME280;27399;51.516;13.670;2023-06-10T08:55:19;100546.13;;;28.07;56.13
41712;BME280;27399;51.516;13.670;2023-06-10T08:57:48;100545.03;;;28.33;56.83
41712;BME280;27399;51.516;13.670;2023-06-10T09:00:16;100549.16;;;28.27;55.92
41712;BME280;27399;51.516;13.670;2023-06-10T09:02:42;100554.50;;;28.40;54.95
41712;BME280;27399;51.516;13.670;2023-06-10T09:05:09;100548.53;;;28.35;53.57
41712;BME280;27399;51.516;13.670;2023-06-10T09:07:35;100538.53;;;28.56;54.39
41712;BME280;27399;51.516;13.670;2023-06-10T09:10:03;100540.00;;;28.60;54.10
41712;BME280;27399;51.516;13.670;2023-06-10T09:12:30;100540.00;;;28.60;52.61
41712;BME280;27399;51.516;13.670;2023-06-10T09:14:55;100544.09;;;28.66;52.21
41712;BME280;27399;51.516;13.670;2023-06-10T09:17:22;100538.78;;;28.76;52.50
41712;BME280;27399;51.516;13.670;2023-06-10T09:19:47;100543.44;;;28.97;52.98
41712;BME280;27399;51.516;13.670;2023-06-10T09:22:14;100543.06;;;29.01;52.54
41712;BME280;27399;51.516;13.670;2023-06-10T09:24:40;100541.31;;;29.00;51.98
41712;BME280;27399;51.516;13.670;2023-06-10T09:27:08;100543.31;;;29.31;52.56
41712;BME280;27399;51.516;13.670;2023-06-10T09:32:17;100533.63;;;29.48;52.74
41712;BME280;27399;51.516;13.670;2023-06-10T09:34:43;100538.81;;;29.41;52.04
41712;BME280;27399;51.516;13.670;2023-06-10T09:37:09;100540.34;;;29.55;51.61
41712;BME280;27399;51.516;13.670;2023-06-10T09:39:37;100542.69;;;29.60;52.00
41712;BME280;27399;51.516;13.670;2023-06-10T09:42:24;100548.16;;;29.81;51.86
41712;BME280;27399;51.516;13.670;2023-06-10T09:44:52;100538.47;;;29.56;51.29
41712;BME280;27399;51.516;13.670;2023-06-10T09:47:22;100530.56;;;29.83;51.53
41712;BME280;27399;51.516;13.670;2023-06-10T09:49:50;100518.88;;;29.49;49.84
41712;BME280;27399;51.516;13.670;2023-06-10T09:52:27;100538.56;;;29.75;51.70
41712;BME280;27399;51.516;13.670;2023-06-10T09:54:55;100524.75;;;29.87;51.77
41712;BME280;27399;51.516;13.670;2023-06-10T09:57:24;100525.47;;;29.79;51.28
41712;BME280;27399;51.516;13.670;2023-06-10T09:59:53;100525.63;;;30.08;52.51
41712;BME280;27399;51.516;13.670;2023-06-10T10:02:21;100531.72;;;30.12;51.43
41712;BME280;27399;51.516;13.670;2023-06-10T10:04:47;100531.59;;;30.13;52.15
41712;BME280;27399;51.516;13.670;2023-06-10T10:07:13;100522.03;;;30.18;51.00
41712;BME280;27399;51.516;13.670;2023-06-10T10:09:40;100527.03;;;30.34;51.50
41712;BME280;27399;51.516;13.670;2023-06-10T10:12:15;100524.44;;;30.01;49.68
41712;BME280;27399;51.516;13.670;2023-06-10T10:14:48;100517.91;;;30.33;50.79
41712;BME280;27399;51.516;13.670;2023-06-10T10:17:15;100514.84;;;30.26;51.55
41712;BME280;27399;51.516;13.670;2023-06-10T10:19:47;100524.53;;;30.21;50.24
41712;BME280;27399;51.516;13.670;2023-06-10T10:22:40;100527.44;;;30.29;49.53
41712;BME280;27399;51.516;13.670;2023-06-10T10:25:17;100521.56;;;30.43;49.79
41712;BME280;27399;51.516;13.670;2023-06-10T10:28:08;100519.47;;;30.67;50.80
41712;BME280;27399;51.516;13.670;2023-06-10T10:30:40;100514.28;;;30.73;51.16
41712;BME280;27399;51.516;13.670;2023-06-10T10:36:22;100507.63;;;30.66;51.73
41712;BME280;27399;51.516;13.670;2023-06-10T10:38:48;100512.00;;;30.79;52.16
41712;BME280;27399;51.516;13.670;2023-06-10T10:41:15;100514.56;;;30.60;50.46
41712;BME280;27399;51.516;13.670;2023-06-10T10:43:43;100498.59;;;30.54;50.48
41712;BME280;27399;51.516;13.670;2023-06-10T10:46:14;100505.09;;;30.53;49.87
41712;BME280;27399;51.516;13.670;2023-06-10T10:48:40;100512.09;;;30.26;49.95
41712;BME280;27399;51.516;13.670;2023-06-10T10:51:10;100513.28;;;30.34;50.33
41712;BME280;27399;51.516;13.670;2023-06-10T10:53:39;100506.84;;;30.54;49.83
41712;BME280;27399;51.516;13.670;2023-06-10T10:56:13;100499.41;;;30.35;49.56
41712;BME280;27399;51.516;13.670;2023-06-10T10:58:39;100494.28;;;30.71;49.46
41712;BME280;27399;51.516;13.670;2023-06-10T11:01:15;100507.06;;;30.82;51.01
41712;BME280;27399;51.516;13.670;2023-06-10T11:03:44;100505.28;;;30.71;50.83
41712;BME280;27399;51.516;13.670;2023-06-10T11:06:13;100500.50;;;30.54;47.68
41712;BME280;27399;51.516;13.670;2023-06-10T11:11:24;100501.25;;;30.85;47.11
41712;BME280;27399;51.516;13.670;2023-06-10T11:16:39;100498.63;;;30.64;47.72
41712;BME280;27399;51.516;13.670;2023-06-10T11:19:06;100501.25;;;30.85;47.64
41712;BME280;27399;51.516;13.670;2023-06-10T11:21:32;100491.41;;;30.92;46.76
41712;BME280;27399;51.516;13.670;2023-06-10T11:24:11;100484.31;;;31.10;47.86
41712;BME280;27399;51.516;13.670;2023-06-10T11:26:43;100486.53;;;31.26;47.32
41712;BME280;27399;51.516;13.670;2023-06-10T11:29:09;100485.06;;;31.31;48.22
41712;BME280;27399;51.516;13.670;2023-06-10T11:31:40;100479.38;;;31.03;46.05
41712;BME280;27399;51.516;13.670;2023-06-10T11:34:06;100485.06;;;31.12;46.47
41712;BME280;27399;51.516;13.670;2023-06-10T11:36:34;100484.78;;;31.15;47.08
41712;BME280;27399;51.516;13.670;2023-06-10T11:39:05;100475.34;;;31.17;47.86
41712;BME280;27399;51.516;13.670;2023-06-10T11:41:32;100475.19;;;31.09;46.05
41712;BME280;27399;51.516;13.670;2023-06-10T11:44:03;100467.78;;;31.00;45.78
41712;BME280;27399;51.516;13.670;2023-06-10T11:46:29;100466.63;;;30.92;45.68
41712;BME280;27399;51.516;13.670;2023-06-10T11:48:56;100471.72;;;30.97;47.07
41712;BME280;27399;51.516;13.670;2023-06-10T11:51:25;100469.53;;;31.11;45.83
41712;BME280;27399;51.516;13.670;2023-06-10T11:53:55;100460.84;;;31.35;45.93
41712;BME280;27399;51.516;13.670;2023-06-10T11:56:28;100468.34;;;31.52;46.31
41712;BME280;27399;51.516;13.670;2023-06-10T11:59:03;100467.03;;;31.57;47.12
41712;BME280;27399;51.516;13.670;2023-06-10T12:01:36;100463.84;;;31.51;46.02
41712;BME280;27399;51.516;13.670;2023-06-10T12:04:04;100465.84;;;31.59;45.81
41712;BME280;27399;51.516;13.670;2023-06-10T12:06:49;100469.75;;;31.66;45.15
41712;BME280;27399;51.516;13.670;2023-06-10T12:09:23;100451.06;;;31.60;44.01
41712;BME280;27399;51.516;13.670;2023-06-10T12:12:02;100458.03;;;31.45;42.85
41712;BME280;27399;51.516;13.670;2023-06-10T12:14:54;100452.38;;;31.56;43.52
41712;BME280;27399;51.516;13.670;2023-06-10T12:17:35;100463.50;;;31.64;43.79
41712;BME280;27399;51.516;13.670;2023-06-10T12:20:06;100470.16;;;31.81;42.82
41712;BME280;27399;51.516;13.670;2023-06-10T12:22:40;100454.38;;;31.64;43.60
41712;BME280;27399;51.516;13.670;2023-06-10T12:25:07;100450.94;;;31.42;44.18
41712;BME280;27399;51.516;13.670;2023-06-10T12:27:34;100456.56;;;31.60;43.63
41712;BME280;27399;51.516;13.670;2023-06-10T12:30:01;100448.03;;;31.53;42.88
41712;BME280;27399;51.516;13.670;2023-06-10T12:32:44;100436.38;;;31.12;41.03
41712;BME280;27399;51.516;13.670;2023-06-10T12:35:11;100443.59;;;31.33;42.49
41712;BME280;27399;51.516;13.670;2023-06-10T12:37:38;100431.50;;;31.44;42.46
41712;BME280;27399;51.516;13.670;2023-06-10T12:40:05;100441.28;;;31.28;43.10
41712;BME280;27399;51.516;13.670;2023-06-10T12:42:37;100446.56;;;31.69;43.23
41712;BME280;27399;51.516;13.670;2023-06-10T12:45:04;100435.78;;;31.76;43.74
41712;BME280;27399;51.516;13.670;2023-06-10T12:47:33;100443.19;;;31.65;43.60
41712;BME280;27399;51.516;13.670;2023-06-10T12:50:05;100430.97;;;31.88;43.77
41712;BME280;27399;51.516;13.670;2023-06-10T12:52:31;100438.81;;;31.82;43.78
41712;BME280;27399;51.516;13.670;2023-06-10T12:54:58;100426.66;;;31.65;41.88
41712;BME280;27399;51.516;13.670;2023-06-10T12:57:24;100445.41;;;31.72;43.19
41712;BME280;27399;51.516;13.670;2023-06-10T12:59:50;100436.16;;;31.53;40.12
41712;BME280;27399;51.516;13.670;2023-06-10T13:02:19;100450.16;;;31.60;40.97